sensor_id;sensor_type;location;lat;lon;timestamp;temperature;humidity
29917;DHT22;16786;49.466;11.068;2022-10-22T00:00:52;14.40;99.90
29917;DHT22;16786;49.466;11.068;2022-10-22T00:03:20;14.50;99.90
29917;DHT22;16786;49.466;11.068;2022-10-22T00:05:47;14.50;99.90
29917;DHT22;16786;49.466;11.068;2022-10-22T00:08:14;14.50;99.90
29917;DHT22;16786;49.466;11.068;2022-10-22T00:10:42;14.50;99.90
29917;DHT22;16786;49.466;11.068;2022-10-22T00:13:10;14.50;99.90
29917;DHT22;16786;49.466;11.068;2022-10-22T00:15:38;14.50;99.90
29917;DHT22;16786;49.466;11.068;2022-10-22T00:18:05;14.50;99.90
29917;DHT22;16786;49.466;11.068;2022-10-22T00:20:33;14.50;99.90
29917;DHT22;16786;49.466;11.068;2022-10-22T00:23:00;14.50;99.90
29917;DHT22;16786;49.466;11.068;2022-10-22T00:25:27;14.60;99.90
29917;DHT22;16786;49.466;11.068;2022-10-22T00:27:55;14.60;99.90
29917;DHT22;16786;49.466;11.068;2022-10-22T00:30:22;14.60;99.90
29917;DHT22;16786;49.466;11.068;2022-10-22T00:32:49;14.50;99.90
29917;DHT22;16786;49.466;11.068;2022-10-22T00:35:16;14.60;99.90
29917;DHT22;16786;49.466;11.068;2022-10-22T00:37:44;14.50;99.90
29917;DHT22;16786;49.466;11.068;2022-10-22T00:40:11;14.50;99.90
29917;DHT22;16786;49.466;11.068;2022-10-22T00:42:39;14.50;99.90
29917;DHT22;16786;49.466;11.068;2022-10-22T00:47:43;14.40;99.90
29917;DHT22;16786;49.466;11.068;2022-10-22T00:50:33;14.40;99.90
29917;DHT22;16786;49.466;11.068;2022-10-22T00:53:02;14.40;99.90
29917;DHT22;16786;49.466;11.068;2022-10-22T00:55:31;14.40;99.90
29917;DHT22;16786;49.466;11.068;2022-10-22T00:57:59;14.40;99.90
29917;DHT22;16786;49.466;11.068;2022-10-22T01:00:27;14.30;99.90
29917;DHT22;16786;49.466;11.068;2022-10-22T01:02:55;14.30;99.90
29917;DHT22;16786;49.466;11.068;2022-10-22T01:05:26;14.30;99.90
29917;DHT22;16786;49.466;11.068;2022-10-22T01:07:54;14.30;99.90
29917;DHT22;16786;49.466;11.068;2022-10-22T01:10:49;14.30;99.90
29917;DHT22;16786;49.466;11.068;2022-10-22T01:13:44;14.20;99.90
29917;DHT22;16786;49.466;11.068;2022-10-22T01:16:36;14.30;99.90
29917;DHT22;16786;49.466;11.068;2022-10-22T01:21:56;14.20;99.90
29917;DHT22;16786;49.466;11.068;2022-10-22T01:28:04;14.20;99.90
29917;DHT22;16786;49.466;11.068;2022-10-22T01:30:36;14.30;99.90
29917;DHT22;16786;49.466;11.068;2022-10-22T01:33:06;14.20;99.90
29917;DHT22;16786;49.466;11.068;2022-10-22T01:35:39;14.30;99.90
29917;DHT22;16786;49.466;11.068;2022-10-22T01:38:11;14.20;99.90
29917;DHT22;16786;49.466;11.068;2022-10-22T01:40:40;14.20;99.90
29917;DHT22;16786;49.466;11.068;2022-10-22T01:43:10;14.20;99.90
29917;DHT22;16786;49.466;11.068;2022-10-22T01:45:51;14.20;99.90
29917;DHT22;16786;49.466;11.068;2022-10-22T01:57:18;14.20;99.90
29917;DHT22;16786;49.466;11.068;2022-10-22T02:02:32;14.10;99.90
29917;DHT22;16786;49.466;11.068;2022-10-22T02:05:20;14.00;99.90
29917;DHT22;16786;49.466;11.068;2022-10-22T02:07:55;14.00;99.90
29917;DHT22;16786;49.466;11.068;2022-10-22T02:10:26;14.00;99.90
29917;DHT22;16786;49.466;11.068;2022-10-22T02:12:56;14.00;99.90
29917;DHT22;16786;49.466;11.068;2022-10-22T02:15:26;13.90;99.90
29917;DHT22;16786;49.466;11.068;2022-10-22T02:17:57;13.90;99.90
29917;DHT22;16786;49.466;11.068;2022-10-22T02:20:32;13.90;99.90
29917;DHT22;16786;49.466;11.068;2022-10-22T02:23:01;13.90;99.90
29917;DHT22;16786;49.466;11.068;2022-10-22T02:25:38;13.90;99.90
29917;DHT22;16786;49.466;11.068;2022-10-22T02:30:46;13.80;99.90
29917;DHT22;16786;49.466;11.068;2022-10-22T02:33:19;13.80;99.90
29917;DHT22;16786;49.466;11.068;2022-10-22T02:35:48;13.80;99.90
29917;DHT22;16786;49.466;11.068;2022-10-22T02:38:18;13.70;99.90
29917;DHT22;16786;49.466;11.068;2022-10-22T02:40:45;13.70;99.90
29917;DHT22;16786;49.466;11.068;2022-10-22T02:43:13;13.70;99.90
29917;DHT22;16786;49.466;11.068;2022-10-22T02:45:40;13.60;99.90
29917;DHT22;16786;49.466;11.068;2022-10-22T02:48:07;13.60;99.90
29917;DHT22;16786;49.466;11.068;2022-10-22T02:50:35;13.60;99.90
29917;DHT22;16786;49.466;11.068;2022-10-22T02:53:02;13.60;99.90
29917;DHT22;16786;49.466;11.068;2022-10-22T02:55:29;13.60;99.90
29917;DHT22;16786;49.466;11.068;2022-10-22T02:57:57;13.60;99.90
29917;DHT22;16786;49.466;11.068;2022-10-22T03:00:24;13.60;99.90
29917;DHT22;16786;49.466;11.068;2022-10-22T03:02:51;13.60;99.90
29917;DHT22;16786;49.466;11.068;2022-10-22T03:05:19;13.60;99.90
29917;DHT22;16786;49.466;11.068;2022-10-22T03:07:46;13.60;99.90
29917;DHT22;16786;49.466;11.068;2022-10-22T03:10:13;13.60;99.90
29917;DHT22;16786;49.466;11.068;2022-10-22T03:12:41;13.60;99.90
29917;DHT22;16786;49.466;11.068;2022-10-22T03:15:08;13.60;99.90
29917;DHT22;16786;49.466;11.068;2022-10-22T03:17:36;13.60;99.90
29917;DHT22;16786;49.466;11.068;2022-10-22T03:20:03;13.60;99.90
29917;DHT22;16786;49.466;11.068;2022-10-22T03:22:32;13.60;99.90
29917;DHT22;16786;49.466;11.068;2022-10-22T03:25:03;13.60;99.90
29917;DHT22;16786;49.466;11.068;2022-10-22T03:27:35;13.60;99.90
29917;DHT22;16786;49.466;11.068;2022-10-22T03:30:04;13.60;99.90
29917;DHT22;16786;49.466;11.068;2022-10-22T03:32:32;13.60;99.90
29917;DHT22;16786;49.466;11.068;2022-10-22T03:34:59;13.60;99.90
29917;DHT22;16786;49.466;11.068;2022-10-22T03:37:27;13.60;99.90
29917;DHT22;16786;49.466;11.068;2022-10-22T03:39:54;13.60;99.90
29917;DHT22;16786;49.466;11.068;2022-10-22T03:42:22;13.70;99.90
29917;DHT22;16786;49.466;11.068;2022-10-22T03:44:49;13.60;99.90
29917;DHT22;16786;49.466;11.068;2022-10-22T03:47:17;13.60;99.90
29917;DHT22;16786;49.466;11.068;2022-10-22T03:49:44;13.60;99.90
29917;DHT22;16786;49.466;11.068;2022-10-22T03:52:13;13.60;99.90
29917;DHT22;16786;49.466;11.068;2022-10-22T03:54:41;13.60;99.90
29917;DHT22;16786;49.466;11.068;2022-10-22T03:57:09;13.70;99.90
29917;DHT22;16786;49.466;11.068;2022-10-22T03:59:39;13.70;99.90
29917;DHT22;16786;49.466;11.068;2022-10-22T04:02:07;13.60;99.90
29917;DHT22;16786;49.466;11.068;2022-10-22T04:04:35;13.60;99.90
29917;DHT22;16786;49.466;11.068;2022-10-22T04:07:04;13.60;99.90
29917;DHT22;16786;49.466;11.068;2022-10-22T04:09:32;13.60;99.90
29917;DHT22;16786;49.466;11.068;2022-10-22T04:12:00;13.60;99.90
29917;DHT22;16786;49.466;11.068;2022-10-22T04:14:28;13.60;99.90
29917;DHT22;16786;49.466;11.068;2022-10-22T04:16:55;13.60;99.90
29917;DHT22;16786;49.466;11.068;2022-10-22T04:19:22;13.60;99.90
29917;DHT22;16786;49.466;11.068;2022-10-22T04:21:49;13.60;99.90
29917;DHT22;16786;49.466;11.068;2022-10-22T04:24:17;13.60;99.90
29917;DHT22;16786;49.466;11.068;2022-10-22T04:26:44;13.60;99.90
29917;DHT22;16786;49.466;11.068;2022-10-22T04:29:11;13.50;99.90
29917;DHT22;16786;49.466;11.068;2022-10-22T04:31:42;13.50;99.90
29917;DHT22;16786;49.466;11.068;2022-10-22T04:34:09;13.50;99.90
29917;DHT22;16786;49.466;11.068;2022-10-22T04:36:37;13.50;99.90
29917;DHT22;16786;49.466;11.068;2022-10-22T04:39:05;13.50;99.90
29917;DHT22;16786;49.466;11.068;2022-10-22T04:41:35;13.50;99.90
29917;DHT22;16786;49.466;11.068;2022-10-22T04:44:04;13.50;99.90
29917;DHT22;16786;49.466;11.068;2022-10-22T04:46:33;13.50;99.90
29917;DHT22;16786;49.466;11.068;2022-10-22T04:49:01;13.50;99.90
29917;DHT22;16786;49.466;11.068;2022-10-22T04:51:30;13.50;99.90
29917;DHT22;16786;49.466;11.068;2022-10-22T04:53:58;13.50;99.90
29917;DHT22;16786;49.466;11.068;2022-10-22T04:56:28;13.50;99.90
29917;DHT22;16786;49.466;11.068;2022-10-22T04:59:02;13.50;99.90
29917;DHT22;16786;49.466;11.068;2022-10-22T05:01:34;13.50;99.90
29917;DHT22;16786;49.466;11.068;2022-10-22T05:04:14;13.50;99.90
29917;DHT22;16786;49.466;11.068;2022-10-22T05:06:42;13.50;99.90
29917;DHT22;16786;49.466;11.068;2022-10-22T05:09:16;13.50;99.90
29917;DHT22;16786;49.466;11.068;2022-10-22T05:11:46;13.50;99.90
29917;DHT22;16786;49.466;11.068;2022-10-22T05:14:22;13.50;99.90
29917;DHT22;16786;49.466;11.068;2022-10-22T05:16:51;13.50;99.90
29917;DHT22;16786;49.466;11.068;2022-10-22T05:19:22;13.50;99.90
29917;DHT22;16786;49.466;11.068;2022-10-22T05:21:51;13.50;99.90
29917;DHT22;16786;49.466;11.068;2022-10-22T05:24:19;13.40;99.90
29917;DHT22;16786;49.466;11.068;2022-10-22T05:26:53;13.40;99.90
29917;DHT22;16786;49.466;11.068;2022-10-22T05:29:22;13.40;99.90
29917;DHT22;16786;49.466;11.068;2022-10-22T05:31:49;13.30;99.90
29917;DHT22;16786;49.466;11.068;2022-10-22T05:34:17;13.30;99.90
29917;DHT22;16786;49.466;11.068;2022-10-22T05:36:44;13.20;99.90
29917;DHT22;16786;49.466;11.068;2022-10-22T05:39:12;13.20;99.90
29917;DHT22;16786;49.466;11.068;2022-10-22T05:41:39;13.20;99.90
29917;DHT22;16786;49.466;11.068;2022-10-22T05:44:10;13.10;99.90
29917;DHT22;16786;49.466;11.068;2022-10-22T05:46:37;13.10;99.90
29917;DHT22;16786;49.466;11.068;2022-10-22T05:49:05;13.00;99.90
29917;DHT22;16786;49.466;11.068;2022-10-22T05:51:35;13.00;99.90
29917;DHT22;16786;49.466;11.068;2022-10-22T05:54:04;13.00;99.90
29917;DHT22;16786;49.466;11.068;2022-10-22T05:56:33;13.00;99.90
29917;DHT22;16786;49.466;11.068;2022-10-22T05:59:00;12.90;99.90
29917;DHT22;16786;49.466;11.068;2022-10-22T06:01:30;12.90;99.90
29917;DHT22;16786;49.466;11.068;2022-10-22T06:04:00;12.90;99.90
29917;DHT22;16786;49.466;11.068;2022-10-22T06:06:35;12.90;99.90
29917;DHT22;16786;49.466;11.068;2022-10-22T06:11:45;13.00;99.90
29917;DHT22;16786;49.466;11.068;2022-10-22T06:14:13;13.00;99.90
29917;DHT22;16786;49.466;11.068;2022-10-22T06:16:41;13.00;99.90
29917;DHT22;16786;49.466;11.068;2022-10-22T06:19:11;13.00;99.90
29917;DHT22;16786;49.466;11.068;2022-10-22T06:21:39;13.10;99.90
29917;DHT22;16786;49.466;11.068;2022-10-22T06:24:08;13.10;99.90
29917;DHT22;16786;49.466;11.068;2022-10-22T06:26:35;13.10;99.90
29917;DHT22;16786;49.466;11.068;2022-10-22T06:29:03;13.10;99.90
29917;DHT22;16786;49.466;11.068;2022-10-22T06:31:30;13.20;99.90
29917;DHT22;16786;49.466;11.068;2022-10-22T06:34:07;13.20;99.90
29917;DHT22;16786;49.466;11.068;2022-10-22T06:36:37;13.20;99.90
29917;DHT22;16786;49.466;11.068;2022-10-22T06:39:04;13.20;99.90
29917;DHT22;16786;49.466;11.068;2022-10-22T06:41:32;13.20;99.90
29917;DHT22;16786;49.466;11.068;2022-10-22T06:43:59;13.30;99.90
29917;DHT22;16786;49.466;11.068;2022-10-22T06:46:27;13.30;99.90
29917;DHT22;16786;49.466;11.068;2022-10-22T06:49:00;13.40;99.90
29917;DHT22;16786;49.466;11.068;2022-10-22T06:51:28;13.40;99.90
29917;DHT22;16786;49.466;11.068;2022-10-22T06:53:56;13.50;99.90
29917;DHT22;16786;49.466;11.068;2022-10-22T06:56:25;13.50;99.90
29917;DHT22;16786;49.466;11.068;2022-10-22T06:58:55;13.60;99.90
29917;DHT22;16786;49.466;11.068;2022-10-22T07:01:30;13.70;99.90
29917;DHT22;16786;49.466;11.068;2022-10-22T07:03:58;13.70;99.90
29917;DHT22;16786;49.466;11.068;2022-10-22T07:06:27;13.80;99.90
29917;DHT22;16786;49.466;11.068;2022-10-22T07:08:56;13.80;99.90
29917;DHT22;16786;49.466;11.068;2022-10-22T07:11:30;13.80;99.90
29917;DHT22;16786;49.466;11.068;2022-10-22T07:13:59;13.80;99.90
29917;DHT22;16786;49.466;11.068;2022-10-22T07:16:26;13.90;99.90
29917;DHT22;16786;49.466;11.068;2022-10-22T07:19:01;13.80;99.90
29917;DHT22;16786;49.466;11.068;2022-10-22T07:21:29;13.80;99.90
29917;DHT22;16786;49.466;11.068;2022-10-22T07:23:57;13.90;99.90
29917;DHT22;16786;49.466;11.068;2022-10-22T07:26:26;13.90;99.90
29917;DHT22;16786;49.466;11.068;2022-10-22T07:28:58;14.00;99.90
29917;DHT22;16786;49.466;11.068;2022-10-22T07:31:27;14.00;99.90
29917;DHT22;16786;49.466;11.068;2022-10-22T07:33:54;14.10;99.90
29917;DHT22;16786;49.466;11.068;2022-10-22T07:36:21;14.20;99.90
29917;DHT22;16786;49.466;11.068;2022-10-22T07:38:54;14.30;99.90
29917;DHT22;16786;49.466;11.068;2022-10-22T07:41:21;14.40;99.90
29917;DHT22;16786;49.466;11.068;2022-10-22T07:43:49;14.50;99.90
29917;DHT22;16786;49.466;11.068;2022-10-22T07:46:17;14.60;99.90
29917;DHT22;16786;49.466;11.068;2022-10-22T07:48:45;14.60;99.90
29917;DHT22;16786;49.466;11.068;2022-10-22T07:51:14;14.70;99.90
29917;DHT22;16786;49.466;11.068;2022-10-22T07:53:41;14.80;99.90
29917;DHT22;16786;49.466;11.068;2022-10-22T07:56:09;15.00;99.90
29917;DHT22;16786;49.466;11.068;2022-10-22T07:58:37;15.10;99.90
29917;DHT22;16786;49.466;11.068;2022-10-22T08:01:04;15.10;99.90
29917;DHT22;16786;49.466;11.068;2022-10-22T08:03:32;15.10;99.90
29917;DHT22;16786;49.466;11.068;2022-10-22T08:06:00;15.10;99.90
29917;DHT22;16786;49.466;11.068;2022-10-22T08:08:27;15.20;99.90
29917;DHT22;16786;49.466;11.068;2022-10-22T08:10:59;15.30;99.90
29917;DHT22;16786;49.466;11.068;2022-10-22T08:13:27;15.20;99.90
29917;DHT22;16786;49.466;11.068;2022-10-22T08:15:58;15.00;99.90
29917;DHT22;16786;49.466;11.068;2022-10-22T08:18:26;15.10;99.90
29917;DHT22;16786;49.466;11.068;2022-10-22T08:20:54;15.10;99.90
29917;DHT22;16786;49.466;11.068;2022-10-22T08:23:21;15.10;99.90
29917;DHT22;16786;49.466;11.068;2022-10-22T08:25:53;15.20;99.90
29917;DHT22;16786;49.466;11.068;2022-10-22T08:28:20;15.20;99.90
29917;DHT22;16786;49.466;11.068;2022-10-22T08:30:48;15.30;99.90
29917;DHT22;16786;49.466;11.068;2022-10-22T08:33:15;15.30;99.90
29917;DHT22;16786;49.466;11.068;2022-10-22T08:35:49;15.40;99.90
29917;DHT22;16786;49.466;11.068;2022-10-22T08:38:18;15.50;99.90
29917;DHT22;16786;49.466;11.068;2022-10-22T08:40:53;15.70;99.90
29917;DHT22;16786;49.466;11.068;2022-10-22T08:49:04;15.90;99.90
29917;DHT22;16786;49.466;11.068;2022-10-22T08:51:36;16.00;99.90
29917;DHT22;16786;49.466;11.068;2022-10-22T08:56:44;16.00;99.90
29917;DHT22;16786;49.466;11.068;2022-10-22T08:59:21;15.90;99.90
29917;DHT22;16786;49.466;11.068;2022-10-22T09:01:52;16.00;99.90
29917;DHT22;16786;49.466;11.068;2022-10-22T09:04:26;16.20;99.90
29917;DHT22;16786;49.466;11.068;2022-10-22T09:06:57;16.20;99.90
29917;DHT22;16786;49.466;11.068;2022-10-22T09:09:41;16.30;99.90
29917;DHT22;16786;49.466;11.068;2022-10-22T09:12:14;16.20;99.90
29917;DHT22;16786;49.466;11.068;2022-10-22T09:14:46;16.30;99.90
29917;DHT22;16786;49.466;11.068;2022-10-22T09:17:21;16.20;99.90
29917;DHT22;16786;49.466;11.068;2022-10-22T09:20:13;16.40;99.90
29917;DHT22;16786;49.466;11.068;2022-10-22T09:25:35;16.70;99.90
29917;DHT22;16786;49.466;11.068;2022-10-22T09:28:03;17.00;99.90
29917;DHT22;16786;49.466;11.068;2022-10-22T09:30:34;17.00;99.90
29917;DHT22;16786;49.466;11.068;2022-10-22T09:33:23;17.20;99.90
29917;DHT22;16786;49.466;11.068;2022-10-22T09:35:54;17.20;99.90
29917;DHT22;16786;49.466;11.068;2022-10-22T09:38:27;17.30;99.90
29917;DHT22;16786;49.466;11.068;2022-10-22T09:40:56;17.50;99.90
29917;DHT22;16786;49.466;11.068;2022-10-22T09:43:24;17.30;99.90
29917;DHT22;16786;49.466;11.068;2022-10-22T09:45:58;17.30;99.90
29917;DHT22;16786;49.466;11.068;2022-10-22T09:48:49;17.20;99.90
29917;DHT22;16786;49.466;11.068;2022-10-22T09:51:24;17.00;99.90
29917;DHT22;16786;49.466;11.068;2022-10-22T09:53:57;16.90;99.90
29917;DHT22;16786;49.466;11.068;2022-10-22T09:56:27;16.80;99.90
29917;DHT22;16786;49.466;11.068;2022-10-22T09:58:56;16.80;99.90
29917;DHT22;16786;49.466;11.068;2022-10-22T10:01:28;16.80;99.90
29917;DHT22;16786;49.466;11.068;2022-10-22T10:04:12;16.80;99.90
29917;DHT22;16786;49.466;11.068;2022-10-22T10:06:42;17.00;99.90
29917;DHT22;16786;49.466;11.068;2022-10-22T10:09:16;17.20;99.90
29917;DHT22;16786;49.466;11.068;2022-10-22T10:12:39;17.30;99.90
29917;DHT22;16786;49.466;11.068;2022-10-22T10:23:24;18.40;99.90
29917;DHT22;16786;49.466;11.068;2022-10-22T10:28:58;18.80;99.90
29917;DHT22;16786;49.466;11.068;2022-10-22T10:45:22;19.00;99.90
29917;DHT22;16786;49.466;11.068;2022-10-22T10:50:50;18.80;99.90
29917;DHT22;16786;49.466;11.068;2022-10-22T11:04:56;20.00;99.90
29917;DHT22;16786;49.466;11.068;2022-10-22T11:07:30;20.10;99.90
29917;DHT22;16786;49.466;11.068;2022-10-22T11:12:47;19.20;99.90
29917;DHT22;16786;49.466;11.068;2022-10-22T11:15:33;19.00;99.90
29917;DHT22;16786;49.466;11.068;2022-10-22T11:18:23;19.10;99.90
29917;DHT22;16786;49.466;11.068;2022-10-22T11:24:15;19.60;99.90
29917;DHT22;16786;49.466;11.068;2022-10-22T11:26:55;19.90;99.90
29917;DHT22;16786;49.466;11.068;2022-10-22T11:29:29;19.60;99.90
29917;DHT22;16786;49.466;11.068;2022-10-22T11:32:01;19.40;99.90
29917;DHT22;16786;49.466;11.068;2022-10-22T11:34:41;19.50;99.90
29917;DHT22;16786;49.466;11.068;2022-10-22T11:37:11;19.30;99.90
29917;DHT22;16786;49.466;11.068;2022-10-22T11:39:51;19.10;99.90
29917;DHT22;16786;49.466;11.068;2022-10-22T11:42:22;19.00;99.90
29917;DHT22;16786;49.466;11.068;2022-10-22T11:45:25;18.80;99.90
29917;DHT22;16786;49.466;11.068;2022-10-22T11:50:58;18.40;99.90
29917;DHT22;16786;49.466;11.068;2022-10-22T11:53:36;18.20;99.90
29917;DHT22;16786;49.466;11.068;2022-10-22T11:58:40;19.40;99.90
29917;DHT22;16786;49.466;11.068;2022-10-22T12:11:40;21.70;99.90
29917;DHT22;16786;49.466;11.068;2022-10-22T12:14:23;22.60;99.90
29917;DHT22;16786;49.466;11.068;2022-10-22T12:16:56;23.30;99.90
29917;DHT22;16786;49.466;11.068;2022-10-22T12:19:29;22.50;99.90
29917;DHT22;16786;49.466;11.068;2022-10-22T12:22:12;22.20;99.90
29917;DHT22;16786;49.466;11.068;2022-10-22T12:24:40;22.60;99.90
29917;DHT22;16786;49.466;11.068;2022-10-22T12:27:37;25.20;99.90
29917;DHT22;16786;49.466;11.068;2022-10-22T12:30:20;27.30;99.90
29917;DHT22;16786;49.466;11.068;2022-10-22T12:32:59;28.90;99.90
29917;DHT22;16786;49.466;11.068;2022-10-22T12:35:31;29.70;99.90
29917;DHT22;16786;49.466;11.068;2022-10-22T12:38:01;30.90;99.90
29917;DHT22;16786;49.466;11.068;2022-10-22T12:40:32;30.90;99.90
29917;DHT22;16786;49.466;11.068;2022-10-22T12:43:14;28.90;99.90
29917;DHT22;16786;49.466;11.068;2022-10-22T12:45:45;27.10;99.90
29917;DHT22;16786;49.466;11.068;2022-10-22T12:48:21;25.10;99.90
29917;DHT22;16786;49.466;11.068;2022-10-22T12:50:52;23.50;99.90
29917;DHT22;16786;49.466;11.068;2022-10-22T12:53:43;22.80;99.90
29917;DHT22;16786;49.466;11.068;2022-10-22T12:56:20;21.40;99.90
29917;DHT22;16786;49.466;11.068;2022-10-22T12:59:00;20.80;99.90
29917;DHT22;16786;49.466;11.068;2022-10-22T13:01:33;20.10;99.90
29917;DHT22;16786;49.466;11.068;2022-10-22T13:06:44;19.50;99.90
29917;DHT22;16786;49.466;11.068;2022-10-22T13:09:22;20.20;99.90
29917;DHT22;16786;49.466;11.068;2022-10-22T13:12:03;20.50;99.90
29917;DHT22;16786;49.466;11.068;2022-10-22T13:14:35;21.60;99.90
29917;DHT22;16786;49.466;11.068;2022-10-22T13:24:55;25.70;99.90
29917;DHT22;16786;49.466;11.068;2022-10-22T13:27:23;26.90;99.90
29917;DHT22;16786;49.466;11.068;2022-10-22T13:29:51;28.70;99.90
29917;DHT22;16786;49.466;11.068;2022-10-22T13:32:36;29.90;99.90
29917;DHT22;16786;49.466;11.068;2022-10-22T13:35:06;28.60;99.90
29917;DHT22;16786;49.466;11.068;2022-10-22T13:37:35;28.00;99.90
29917;DHT22;16786;49.466;11.068;2022-10-22T13:40:13;28.00;99.90
29917;DHT22;16786;49.466;11.068;2022-10-22T13:42:40;28.90;99.90
29917;DHT22;16786;49.466;11.068;2022-10-22T13:45:08;29.30;99.90
29917;DHT22;16786;49.466;11.068;2022-10-22T13:47:36;29.40;99.20
29917;DHT22;16786;49.466;11.068;2022-10-22T13:50:11;29.10;99.30
29917;DHT22;16786;49.466;11.068;2022-10-22T13:52:45;29.50;98.30
29917;DHT22;16786;49.466;11.068;2022-10-22T13:55:25;30.10;97.30
29917;DHT22;16786;49.466;11.068;2022-10-22T13:58:05;31.10;96.10
29917;DHT22;16786;49.466;11.068;2022-10-22T14:00:33;30.30;96.00
29917;DHT22;16786;49.466;11.068;2022-10-22T14:03:00;30.80;95.40
29917;DHT22;16786;49.466;11.068;2022-10-22T14:05:27;31.20;94.30
29917;DHT22;16786;49.466;11.068;2022-10-22T14:07:58;32.40;93.50
29917;DHT22;16786;49.466;11.068;2022-10-22T14:10:26;33.50;92.10
29917;DHT22;16786;49.466;11.068;2022-10-22T14:12:53;33.30;91.10
29917;DHT22;16786;49.466;11.068;2022-10-22T14:15:22;33.10;90.80
29917;DHT22;16786;49.466;11.068;2022-10-22T14:17:58;33.40;90.20
29917;DHT22;16786;49.466;11.068;2022-10-22T14:20:31;33.80;88.00
29917;DHT22;16786;49.466;11.068;2022-10-22T14:23:20;33.60;85.70
29917;DHT22;16786;49.466;11.068;2022-10-22T14:25:48;33.30;85.80
29917;DHT22;16786;49.466;11.068;2022-10-22T14:28:17;31.70;87.80
29917;DHT22;16786;49.466;11.068;2022-10-22T14:30:45;31.90;87.30
29917;DHT22;16786;49.466;11.068;2022-10-22T14:33:20;30.90;90.00
29917;DHT22;16786;49.466;11.068;2022-10-22T14:35:53;31.80;89.30
29917;DHT22;16786;49.466;11.068;2022-10-22T14:38:20;32.20;88.20
29917;DHT22;16786;49.466;11.068;2022-10-22T14:40:48;31.50;88.90
29917;DHT22;16786;49.466;11.068;2022-10-22T14:43:27;31.60;89.60
29917;DHT22;16786;49.466;11.068;2022-10-22T14:45:55;31.10;90.20
29917;DHT22;16786;49.466;11.068;2022-10-22T14:48:23;32.40;87.50
29917;DHT22;16786;49.466;11.068;2022-10-22T14:50:50;31.30;88.30
29917;DHT22;16786;49.466;11.068;2022-10-22T14:53:18;31.40;89.80
29917;DHT22;16786;49.466;11.068;2022-10-22T14:55:45;31.80;86.90
29917;DHT22;16786;49.466;11.068;2022-10-22T14:58:15;31.90;87.80
29917;DHT22;16786;49.466;11.068;2022-10-22T15:00:42;33.00;86.40
29917;DHT22;16786;49.466;11.068;2022-10-22T15:03:10;31.50;88.60
29917;DHT22;16786;49.466;11.068;2022-10-22T15:05:42;32.10;86.90
29917;DHT22;16786;49.466;11.068;2022-10-22T15:08:12;31.40;88.60
29917;DHT22;16786;49.466;11.068;2022-10-22T15:10:40;31.30;86.30
29917;DHT22;16786;49.466;11.068;2022-10-22T15:13:08;30.20;88.80
29917;DHT22;16786;49.466;11.068;2022-10-22T15:15:38;28.80;90.20
29917;DHT22;16786;49.466;11.068;2022-10-22T15:18:06;28.50;91.10
29917;DHT22;16786;49.466;11.068;2022-10-22T15:20:33;28.40;91.10
29917;DHT22;16786;49.466;11.068;2022-10-22T15:23:00;28.40;91.20
29917;DHT22;16786;49.466;11.068;2022-10-22T15:25:28;28.00;91.80
29917;DHT22;16786;49.466;11.068;2022-10-22T15:27:55;28.50;91.90
29917;DHT22;16786;49.466;11.068;2022-10-22T15:30:30;28.30;91.80
29917;DHT22;16786;49.466;11.068;2022-10-22T15:32:58;28.60;91.70
29917;DHT22;16786;49.466;11.068;2022-10-22T15:35:26;28.40;91.80
29917;DHT22;16786;49.466;11.068;2022-10-22T15:37:54;27.80;92.30
29917;DHT22;16786;49.466;11.068;2022-10-22T15:40:21;26.80;93.70
29917;DHT22;16786;49.466;11.068;2022-10-22T15:42:49;25.90;94.60
29917;DHT22;16786;49.466;11.068;2022-10-22T15:45:16;24.70;96.10
29917;DHT22;16786;49.466;11.068;2022-10-22T15:47:44;24.00;97.90
29917;DHT22;16786;49.466;11.068;2022-10-22T15:50:14;23.90;98.80
29917;DHT22;16786;49.466;11.068;2022-10-22T15:52:41;23.60;99.60
29917;DHT22;16786;49.466;11.068;2022-10-22T15:55:08;23.70;99.90
29917;DHT22;16786;49.466;11.068;2022-10-22T15:57:37;23.70;99.90
29917;DHT22;16786;49.466;11.068;2022-10-22T16:00:06;23.30;99.90
29917;DHT22;16786;49.466;11.068;2022-10-22T16:02:41;22.60;99.90
29917;DHT22;16786;49.466;11.068;2022-10-22T16:05:10;22.30;99.90
29917;DHT22;16786;49.466;11.068;2022-10-22T16:07:37;21.60;99.90
29917;DHT22;16786;49.466;11.068;2022-10-22T16:10:05;20.80;99.90
29917;DHT22;16786;49.466;11.068;2022-10-22T16:12:33;20.20;99.90
29917;DHT22;16786;49.466;11.068;2022-10-22T16:15:02;19.70;99.90
29917;DHT22;16786;49.466;11.068;2022-10-22T16:17:29;19.30;99.90
29917;DHT22;16786;49.466;11.068;2022-10-22T16:19:57;18.80;99.90
29917;DHT22;16786;49.466;11.068;2022-10-22T16:22:24;18.50;99.90
29917;DHT22;16786;49.466;11.068;2022-10-22T16:24:51;18.30;99.90
29917;DHT22;16786;49.466;11.068;2022-10-22T16:27:19;18.10;99.90
29917;DHT22;16786;49.466;11.068;2022-10-22T16:29:46;17.90;99.90
29917;DHT22;16786;49.466;11.068;2022-10-22T16:32:14;17.80;99.90
29917;DHT22;16786;49.466;11.068;2022-10-22T16:34:42;17.70;99.90
29917;DHT22;16786;49.466;11.068;2022-10-22T16:37:10;17.60;99.90
29917;DHT22;16786;49.466;11.068;2022-10-22T16:39:37;17.40;99.90
29917;DHT22;16786;49.466;11.068;2022-10-22T16:42:04;17.30;99.90
29917;DHT22;16786;49.466;11.068;2022-10-22T16:44:32;17.20;99.90
29917;DHT22;16786;49.466;11.068;2022-10-22T16:46:59;17.10;99.90
29917;DHT22;16786;49.466;11.068;2022-10-22T16:49:27;17.10;99.90
29917;DHT22;16786;49.466;11.068;2022-10-22T16:51:54;16.90;99.90
29917;DHT22;16786;49.466;11.068;2022-10-22T16:54:21;16.90;99.90
29917;DHT22;16786;49.466;11.068;2022-10-22T16:56:48;16.80;99.90
29917;DHT22;16786;49.466;11.068;2022-10-22T16:59:16;16.80;99.90
29917;DHT22;16786;49.466;11.068;2022-10-22T17:01:43;16.80;99.90
29917;DHT22;16786;49.466;11.068;2022-10-22T17:04:10;16.70;99.90
29917;DHT22;16786;49.466;11.068;2022-10-22T17:06:38;16.70;99.90
29917;DHT22;16786;49.466;11.068;2022-10-22T17:09:05;16.60;99.90
29917;DHT22;16786;49.466;11.068;2022-10-22T17:11:33;16.50;99.90
29917;DHT22;16786;49.466;11.068;2022-10-22T17:14:04;16.40;99.90
29917;DHT22;16786;49.466;11.068;2022-10-22T17:16:32;16.30;99.90
29917;DHT22;16786;49.466;11.068;2022-10-22T17:19:02;16.30;99.90
29917;DHT22;16786;49.466;11.068;2022-10-22T17:21:30;16.20;99.90
29917;DHT22;16786;49.466;11.068;2022-10-22T17:23:58;16.20;99.90
29917;DHT22;16786;49.466;11.068;2022-10-22T17:26:26;16.10;99.90